Time;durP1;ratioP1;P1;durP2;ratioP2;P2;SDS_P1;SDS_P2;PMS_P1;PMS_P2;Temp;Humidity;BMP_temperature;BMP_pressure;BME280_temperature;BME280_humidity;BME280_pressure;Samples;Min_cycle;Max_cycle;Signal;HPM_P1;HPM_P2
2022/08/16 00:00:36;;;;;;;;;;;21.60;99.90;;;;;;4227644;28;19911;-61
2022/08/16 00:02:37;;;;;;;;;;;21.50;99.90;;;;;;4228898;28;20323;-60
2022/08/16 00:04:38;;;;;;;;;;;21.60;99.90;;;;;;4227767;28;19903;-61
2022/08/16 00:06:39;;;;;;;;;;;21.50;99.90;;;;;;4228302;28;19994;-61
2022/08/16 00:08:40;;;;;;;;;;;21.50;99.90;;;;;;4227911;28;19911;-61
2022/08/16 00:10:41;;;;;;;;;;;21.50;99.90;;;;;;4228094;28;19915;-63
2022/08/16 00:12:43;;;;;;;;;;;21.40;99.90;;;;;;4228349;28;20343;-61
2022/08/16 00:14:44;;;;;;;;;;;21.40;99.90;;;;;;4227805;28;20016;-61
2022/08/16 00:16:45;;;;;;;;;;;21.30;99.90;;;;;;4228476;28;19916;-60
2022/08/16 00:18:46;;;;;;;;;;;21.30;99.90;;;;;;4227341;28;19912;-61
2022/08/16 00:20:48;;;;;;;;;;;21.30;99.90;;;;;;4228796;28;19903;-60
2022/08/16 00:22:49;;;;;;;;;;;21.20;99.90;;;;;;4227507;28;19976;-60
2022/08/16 00:24:50;;;;;;;;;;;21.20;99.90;;;;;;4228979;28;20367;-61
2022/08/16 00:26:51;;;;;;;;;;;21.20;99.90;;;;;;4227447;28;19914;-60
2022/08/16 00:28:52;;;;;;;;;;;21.20;99.90;;;;;;4228659;28;19938;-61
2022/08/16 00:30:53;;;;;;;;;;;21.10;99.90;;;;;;4227556;28;20403;-62
2022/08/16 00:32:55;;;;;;;;;;;21.20;99.90;;;;;;4228552;28;19926;-61
2022/08/16 00:34:56;;;;;;;;;;;21.10;99.90;;;;;;4226955;28;19904;-60
2022/08/16 00:36:57;;;;;;;;;;;21.10;99.90;;;;;;4228210;28;19911;-61
2022/08/16 00:38:58;;;;;;;;;;;21.10;99.90;;;;;;4227454;28;19915;-61
2022/08/16 00:41:00;;;;;;;;;;;21.10;99.90;;;;;;4227959;28;19938;-61
2022/08/16 00:43:03;;;;;;;;;;;21.10;99.90;;;;;;4227804;28;19957;-60
2022/08/16 00:45:08;;;;;;;;;;;21.00;99.90;;;;;;4227645;28;19907;-61
2022/08/16 00:47:11;;;;;;;;;;;21.00;99.90;;;;;;4229650;28;19952;-61
2022/08/16 00:49:12;;;;;;;;;;;20.90;99.90;;;;;;4230866;28;19911;-60
2022/08/16 00:51:14;;;;;;;;;;;20.90;99.90;;;;;;4231680;28;19961;-61
2022/08/16 00:53:16;;;;;;;;;;;20.90;99.90;;;;;;4231051;28;20327;-61
2022/08/16 00:55:18;;;;;;;;;;;20.90;99.90;;;;;;4231149;28;19907;-61
2022/08/16 00:57:19;;;;;;;;;;;20.90;99.90;;;;;;4230527;28;19903;-60
2022/08/16 00:59:21;;;;;;;;;;;20.80;99.90;;;;;;4231498;28;20010;-61
2022/08/16 01:01:22;;;;;;;;;;;20.80;99.90;;;;;;4230302;28;19912;-61
2022/08/16 01:03:24;;;;;;;;;;;20.80;99.90;;;;;;4231534;28;20329;-60
2022/08/16 01:05:26;;;;;;;;;;;20.70;99.90;;;;;;4230363;28;19972;-61
2022/08/16 01:07:27;;;;;;;;;;;20.70;99.90;;;;;;4231311;28;20355;-61
2022/08/16 01:09:33;;;;;;;;;;;20.70;99.90;;;;;;4230475;28;19903;-61
2022/08/16 01:11:35;;;;;;;;;;;20.70;99.90;;;;;;4231125;28;19957;-62
2022/08/16 01:13:38;;;;;;;;;;;20.70;99.90;;;;;;4230290;28;19908;-61
2022/08/16 01:15:40;;;;;;;;;;;20.70;99.90;;;;;;4230810;28;20328;-61
2022/08/16 01:17:45;;;;;;;;;;;20.70;99.90;;;;;;4230780;28;19961;-60
2022/08/16 01:19:51;;;;;;;;;;;20.60;99.90;;;;;;4230738;28;20012;-60
2022/08/16 01:21:56;;;;;;;;;;;20.60;99.90;;;;;;4230534;28;20236;-61
2022/08/16 01:24:00;;;;;;;;;;;20.60;99.90;;;;;;4230924;28;20417;-61
2022/08/16 01:26:02;;;;;;;;;;;20.60;99.90;;;;;;4230999;28;20019;-61
2022/08/16 01:28:06;;;;;;;;;;;20.60;99.90;;;;;;4230105;28;19907;-60
2022/08/16 01:30:11;;;;;;;;;;;20.50;99.90;;;;;;4231154;28;19904;-60
2022/08/16 01:32:12;;;;;;;;;;;20.50;99.90;;;;;;4229988;28;19908;-60
2022/08/16 01:34:13;;;;;;;;;;;20.60;99.90;;;;;;4231316;28;19953;-60
2022/08/16 01:36:14;;;;;;;;;;;20.60;99.90;;;;;;4229809;28;19961;-60
2022/08/16 01:38:18;;;;;;;;;;;20.60;99.90;;;;;;4230717;28;19977;-60
2022/08/16 01:40:20;;;;;;;;;;;20.60;99.90;;;;;;4228531;28;19904;-61
2022/08/16 01:42:22;;;;;;;;;;;20.60;99.90;;;;;;4230874;28;20662;-60
2022/08/16 01:44:23;;;;;;;;;;;20.60;99.90;;;;;;4229513;28;19903;-60
2022/08/16 01:46:39;;;;;;;;;;;20.60;99.90;;;;;;4230961;28;19907;-60
2022/08/16 01:48:40;;;;;;;;;;;20.60;99.90;;;;;;4229416;28;19907;-60
2022/08/16 01:50:43;;;;;;;;;;;20.50;99.90;;;;;;4230819;28;20313;-61
2022/08/16 01:52:44;;;;;;;;;;;20.50;99.90;;;;;;4229601;28;19965;-61
2022/08/16 01:54:44;;;;;;;;;;;20.50;99.90;;;;;;4230873;28;20014;-61
2022/08/16 01:56:45;;;;;;;;;;;20.50;99.90;;;;;;4229501;28;19975;-62
2022/08/16 01:58:46;;;;;;;;;;;20.50;99.90;;;;;;4229078;28;20330;-64
2022/08/16 02:00:47;;;;;;;;;;;20.60;99.90;;;;;;4229994;28;19928;-62
2022/08/16 02:02:48;;;;;;;;;;;20.60;99.90;;;;;;4229414;28;19994;-63
2022/08/16 02:04:49;;;;;;;;;;;20.60;99.90;;;;;;4230340;28;19907;-62
2022/08/16 02:06:51;;;;;;;;;;;20.60;99.90;;;;;;4229264;28;19904;-61
2022/08/16 02:08:53;;;;;;;;;;;20.60;99.90;;;;;;4230521;28;19953;-61
2022/08/16 02:10:55;;;;;;;;;;;20.60;99.90;;;;;;4229046;28;19961;-61
2022/08/16 02:12:56;;;;;;;;;;;20.60;99.90;;;;;;4230362;28;20261;-60
2022/08/16 02:14:57;;;;;;;;;;;20.60;99.90;;;;;;4229180;28;20322;-61
2022/08/16 02:17:02;;;;;;;;;;;20.60;99.90;;;;;;4230433;28;19972;-65
2022/08/16 02:19:04;;;;;;;;;;;20.60;99.90;;;;;;4229111;28;19911;-63
2022/08/16 02:21:05;;;;;;;;;;;20.60;99.90;;;;;;4230243;28;19959;-63
2022/08/16 02:23:06;;;;;;;;;;;20.60;99.90;;;;;;4229291;28;19916;-64
2022/08/16 02:25:10;;;;;;;;;;;20.60;99.90;;;;;;4229961;28;19911;-61
2022/08/16 02:27:11;;;;;;;;;;;20.50;99.90;;;;;;4229173;28;19941;-61
2022/08/16 02:29:12;;;;;;;;;;;20.50;99.90;;;;;;4229663;28;19970;-61
2022/08/16 02:31:14;;;;;;;;;;;20.50;99.90;;;;;;4229369;28;19908;-63
2022/08/16 02:33:15;;;;;;;;;;;20.50;99.90;;;;;;4229363;28;19957;-64
2022/08/16 02:35:16;;;;;;;;;;;20.50;99.90;;;;;;4229750;28;19912;-62
2022/08/16 02:37:17;;;;;;;;;;;20.50;99.90;;;;;;4228784;28;19923;-61
2022/08/16 02:39:18;;;;;;;;;;;20.50;99.90;;;;;;4229927;28;19916;-60
2022/08/16 02:41:19;;;;;;;;;;;20.50;99.90;;;;;;4228714;28;19907;-61
2022/08/16 02:43:20;;;;;;;;;;;20.50;99.90;;;;;;4229597;28;19904;-64
2022/08/16 02:45:22;;;;;;;;;;;20.50;99.90;;;;;;4228419;28;19903;-63
2022/08/16 02:47:22;;;;;;;;;;;20.50;99.90;;;;;;4228083;28;20024;-62
2022/08/16 02:49:23;;;;;;;;;;;20.50;99.90;;;;;;4228763;28;19911;-62
2022/08/16 02:51:25;;;;;;;;;;;20.60;99.90;;;;;;4229761;28;20351;-61
2022/08/16 02:53:26;;;;;;;;;;;20.60;99.90;;;;;;4229048;28;19933;-61
2022/08/16 02:55:27;;;;;;;;;;;20.60;99.90;;;;;;4229805;28;19903;-63
2022/08/16 02:57:29;;;;;;;;;;;20.60;99.90;;;;;;4228447;28;19960;-62
2022/08/16 02:59:30;;;;;;;;;;;20.60;99.90;;;;;;4229284;28;19916;-63
2022/08/16 03:01:32;;;;;;;;;;;20.60;99.90;;;;;;4228928;28;20366;-62
2022/08/16 03:03:35;;;;;;;;;;;20.50;99.90;;;;;;4229066;28;19965;-62
2022/08/16 03:05:36;;;;;;;;;;;20.50;99.90;;;;;;4229113;28;19952;-63
2022/08/16 03:07:37;;;;;;;;;;;20.50;99.90;;;;;;4227979;28;20274;-64
2022/08/16 03:09:38;;;;;;;;;;;20.40;99.90;;;;;;4229315;28;19960;-64
2022/08/16 03:11:39;;;;;;;;;;;20.50;99.90;;;;;;4228294;28;20353;-62
2022/08/16 03:13:40;;;;;;;;;;;20.40;99.90;;;;;;4229468;28;20293;-61
2022/08/16 03:15:42;;;;;;;;;;;20.40;99.90;;;;;;4228050;28;20317;-61
2022/08/16 03:17:44;;;;;;;;;;;20.40;99.90;;;;;;4229392;28;19907;-65
2022/08/16 03:19:45;;;;;;;;;;;20.40;99.90;;;;;;4228113;28;19912;-63
2022/08/16 03:21:46;;;;;;;;;;;20.40;99.90;;;;;;4228829;28;19961;-62
2022/08/16 03:23:47;;;;;;;;;;;20.50;99.90;;;;;;4228632;28;19911;-61
2022/08/16 03:25:48;;;;;;;;;;;20.40;99.90;;;;;;4229284;28;19908;-64
2022/08/16 03:27:49;;;;;;;;;;;20.40;99.90;;;;;;4227621;28;19908;-61
2022/08/16 03:29:50;;;;;;;;;;;20.40;99.90;;;;;;4228906;28;20351;-63
2022/08/16 03:31:52;;;;;;;;;;;20.40;99.90;;;;;;4228150;28;19968;-62
2022/08/16 03:33:53;;;;;;;;;;;20.40;99.90;;;;;;4228635;28;19961;-65
2022/08/16 03:35:58;;;;;;;;;;;20.40;99.90;;;;;;4228436;28;19900;-62
2022/08/16 03:38:00;;;;;;;;;;;20.50;99.90;;;;;;4228237;28;20301;-62
2022/08/16 03:40:03;;;;;;;;;;;20.50;99.90;;;;;;4228882;28;19976;-61
2022/08/16 03:42:04;;;;;;;;;;;20.50;99.90;;;;;;4227911;28;19949;-63
2022/08/16 03:44:06;;;;;;;;;;;20.50;99.90;;;;;;4228907;28;19907;-61
2022/08/16 03:46:07;;;;;;;;;;;20.60;99.90;;;;;;4227699;28;20329;-65
2022/08/16 03:48:08;;;;;;;;;;;20.60;99.90;;;;;;4228229;28;19904;-62
2022/08/16 03:50:09;;;;;;;;;;;20.60;99.90;;;;;;4227828;28;20310;-62
2022/08/16 03:52:12;;;;;;;;;;;20.60;99.90;;;;;;4228715;28;19903;-64
2022/08/16 03:54:13;;;;;;;;;;;20.60;99.90;;;;;;4228231;28;20310;-63
2022/08/16 03:56:14;;;;;;;;;;;20.60;99.90;;;;;;4229035;28;19904;-65
2022/08/16 03:58:15;;;;;;;;;;;20.60;99.90;;;;;;4227220;28;19911;-64
2022/08/16 04:00:18;;;;;;;;;;;20.60;99.90;;;;;;4228458;28;20347;-65
2022/08/16 04:02:19;;;;;;;;;;;20.60;99.90;;;;;;4227569;28;20329;-62
2022/08/16 04:04:20;;;;;;;;;;;20.60;99.90;;;;;;4228255;28;19937;-67
2022/08/16 04:06:21;;;;;;;;;;;20.60;99.90;;;;;;4227572;28;20400;-66
2022/08/16 04:08:22;;;;;;;;;;;20.60;99.90;;;;;;4227505;28;19908;-63
2022/08/16 04:10:23;;;;;;;;;;;20.60;99.90;;;;;;4228191;28;20248;-67
2022/08/16 04:12:24;;;;;;;;;;;20.60;99.90;;;;;;4227482;28;20272;-65
2022/08/16 04:14:25;;;;;;;;;;;20.70;99.90;;;;;;4228463;28;19904;-62
2022/08/16 04:16:26;;;;;;;;;;;20.70;99.90;;;;;;4227505;28;19910;-62
2022/08/16 04:18:27;;;;;;;;;;;20.70;99.90;;;;;;4228168;28;19907;-63
2022/08/16 04:20:29;;;;;;;;;;;20.70;99.90;;;;;;4226948;28;19965;-62
2022/08/16 04:22:30;;;;;;;;;;;20.80;99.90;;;;;;4230582;28;19950;-63
2022/08/16 04:24:31;;;;;;;;;;;20.80;99.90;;;;;;4231467;28;19999;-61
2022/08/16 04:26:32;;;;;;;;;;;20.80;99.90;;;;;;4231996;28;19907;-63
2022/08/16 04:28:33;;;;;;;;;;;20.80;99.90;;;;;;4230673;27;20341;-60
2022/08/16 04:30:34;;;;;;;;;;;20.90;99.90;;;;;;4231383;28;19907;-63
2022/08/16 04:32:36;;;;;;;;;;;20.90;99.90;;;;;;4228982;28;19900;-61
2022/08/16 04:34:40;;;;;;;;;;;20.80;99.90;;;;;;4230905;28;20333;-62
2022/08/16 04:36:41;;;;;;;;;;;20.90;99.90;;;;;;4230798;28;19961;-62
2022/08/16 04:38:42;;;;;;;;;;;20.80;99.90;;;;;;4230344;28;19920;-61
2022/08/16 04:40:43;;;;;;;;;;;20.90;99.90;;;;;;4230792;28;19908;-61
2022/08/16 04:42:44;;;;;;;;;;;20.90;99.90;;;;;;4223291;28;19908;-61
2022/08/16 04:44:45;;;;;;;;;;;21.00;99.90;;;;;;4214294;28;19919;-62
2022/08/16 04:46:46;;;;;;;;;;;21.10;99.90;;;;;;4212919;28;19904;-61
2022/08/16 04:48:47;;;;;;;;;;;21.10;99.90;;;;;;4213911;28;19908;-61
2022/08/16 04:50:48;;;;;;;;;;;21.10;99.90;;;;;;4219645;27;20420;-61
2022/08/16 04:52:50;;;;;;;;;;;21.10;99.90;;;;;;4231974;27;19908;-62
2022/08/16 04:54:50;;;;;;;;;;;21.10;99.90;;;;;;4230846;28;20340;-62
2022/08/16 04:56:51;;;;;;;;;;;21.20;99.90;;;;;;4231276;27;19908;-62
2022/08/16 04:58:52;;;;;;;;;;;21.20;99.90;;;;;;4230227;28;20363;-63
2022/08/16 05:00:53;;;;;;;;;;;21.30;99.90;;;;;;4231566;27;19947;-62
2022/08/16 05:02:54;;;;;;;;;;;21.40;99.90;;;;;;4230282;28;20007;-62
2022/08/16 05:04:55;;;;;;;;;;;21.40;99.90;;;;;;4230813;28;19998;-62
2022/08/16 05:06:56;;;;;;;;;;;21.50;99.90;;;;;;4230576;27;19907;-63
2022/08/16 05:08:57;;;;;;;;;;;21.50;99.90;;;;;;4230706;27;19949;-62
2022/08/16 05:10:59;;;;;;;;;;;21.60;99.90;;;;;;4230455;28;19903;-63
2022/08/16 05:13:00;;;;;;;;;;;21.60;99.90;;;;;;4229905;28;19908;-64
2022/08/16 05:15:02;;;;;;;;;;;21.70;99.90;;;;;;4230060;28;19907;-62
2022/08/16 05:17:03;;;;;;;;;;;21.70;99.90;;;;;;4229457;28;20322;-62
2022/08/16 05:19:05;;;;;;;;;;;21.70;99.90;;;;;;4230956;28;20319;-63
2022/08/16 05:21:06;;;;;;;;;;;21.80;99.90;;;;;;4229715;28;19908;-63
2022/08/16 05:23:07;;;;;;;;;;;21.80;99.90;;;;;;4230608;28;20337;-62
2022/08/16 05:25:08;;;;;;;;;;;21.80;99.90;;;;;;4230331;28;19904;-62
2022/08/16 05:27:09;;;;;;;;;;;21.90;99.90;;;;;;4230811;28;19907;-62
2022/08/16 05:29:10;;;;;;;;;;;21.90;99.90;;;;;;4229570;28;19908;-62
2022/08/16 05:31:11;;;;;;;;;;;22.00;99.90;;;;;;4230873;28;19960;-62
2022/08/16 05:33:12;;;;;;;;;;;22.00;99.90;;;;;;4228299;28;19907;-62
2022/08/16 05:35:13;;;;;;;;;;;22.10;99.90;;;;;;4230534;28;19972;-62
2022/08/16 05:37:14;;;;;;;;;;;22.20;99.90;;;;;;4229909;28;19908;-62
2022/08/16 05:39:15;;;;;;;;;;;22.30;99.90;;;;;;4230076;28;19911;-63
2022/08/16 05:41:16;;;;;;;;;;;22.30;99.90;;;;;;4229714;28;19903;-61
2022/08/16 05:43:16;;;;;;;;;;;22.30;99.90;;;;;;4229403;28;19904;-62
2022/08/16 05:45:18;;;;;;;;;;;22.20;99.90;;;;;;4230310;28;19903;-62
2022/08/16 05:47:19;;;;;;;;;;;22.10;99.90;;;;;;4229282;28;19961;-62
2022/08/16 05:49:20;;;;;;;;;;;22.10;99.90;;;;;;4230483;28;19903;-62
2022/08/16 05:51:20;;;;;;;;;;;22.10;99.90;;;;;;4228923;28;19933;-62
2022/08/16 05:53:21;;;;;;;;;;;22.20;99.90;;;;;;4229980;28;20286;-62
2022/08/16 05:55:22;;;;;;;;;;;22.20;99.90;;;;;;4229565;28;19946;-62
2022/08/16 05:57:23;;;;;;;;;;;22.20;99.90;;;;;;4229990;28;19957;-61
2022/08/16 05:59:25;;;;;;;;;;;22.30;99.90;;;;;;4228107;28;19912;-62
2022/08/16 06:01:26;;;;;;;;;;;22.30;99.90;;;;;;4230136;28;19908;-62
2022/08/16 06:03:27;;;;;;;;;;;22.30;99.90;;;;;;4229250;28;19969;-62
2022/08/16 06:05:27;;;;;;;;;;;22.40;99.90;;;;;;4230009;28;19907;-61
2022/08/16 06:07:29;;;;;;;;;;;22.50;99.90;;;;;;4229013;28;19903;-62
2022/08/16 06:09:30;;;;;;;;;;;22.60;99.90;;;;;;4229587;28;19908;-64
2022/08/16 06:11:31;;;;;;;;;;;22.80;99.90;;;;;;4229687;28;20347;-62
2022/08/16 06:13:32;;;;;;;;;;;22.90;99.90;;;;;;4228986;28;19911;-63
2022/08/16 06:15:33;;;;;;;;;;;23.00;99.90;;;;;;4230057;28;20348;-62
2022/08/16 06:17:34;;;;;;;;;;;23.00;99.90;;;;;;4228538;28;19907;-62
2022/08/16 06:19:35;;;;;;;;;;;23.10;99.90;;;;;;4229929;28;19916;-63
2022/08/16 06:21:36;;;;;;;;;;;23.20;99.90;;;;;;4228727;28;20002;-62
2022/08/16 06:23:38;;;;;;;;;;;23.20;99.90;;;;;;4229969;28;20034;-62
2022/08/16 06:25:39;;;;;;;;;;;23.20;99.90;;;;;;4229129;28;19907;-63
2022/08/16 06:27:40;;;;;;;;;;;23.30;99.90;;;;;;4229457;28;19998;-64
2022/08/16 06:29:41;;;;;;;;;;;23.40;99.90;;;;;;4228416;28;20442;-63
2022/08/16 06:31:42;;;;;;;;;;;23.50;99.90;;;;;;4229635;28;19904;-62
2022/08/16 06:33:43;;;;;;;;;;;23.50;99.90;;;;;;4228499;28;19904;-62
2022/08/16 06:35:45;;;;;;;;;;;23.60;99.90;;;;;;4229340;28;19904;-62
2022/08/16 06:37:46;;;;;;;;;;;23.80;99.90;;;;;;4227366;28;19949;-64
2022/08/16 06:39:47;;;;;;;;;;;23.80;99.90;;;;;;4228716;28;19912;-64
2022/08/16 06:41:48;;;;;;;;;;;23.80;99.90;;;;;;4229089;28;19933;-62
2022/08/16 06:43:49;;;;;;;;;;;23.80;99.90;;;;;;4228417;28;19907;-64
2022/08/16 06:45:50;;;;;;;;;;;23.90;99.90;;;;;;4229210;28;19904;-62
2022/08/16 06:47:50;;;;;;;;;;;24.10;99.90;;;;;;4228503;28;19907;-62
2022/08/16 06:49:51;;;;;;;;;;;24.40;99.90;;;;;;4229628;28;19961;-63
2022/08/16 06:51:52;;;;;;;;;;;24.60;99.90;;;;;;4228334;28;19930;-63
2022/08/16 06:53:53;;;;;;;;;;;24.60;99.90;;;;;;4229833;28;19903;-63
2022/08/16 06:55:56;;;;;;;;;;;24.70;99.90;;;;;;4228314;27;19904;-63
2022/08/16 06:57:57;;;;;;;;;;;24.60;99.90;;;;;;4229812;28;19903;-62
2022/08/16 06:59:58;;;;;;;;;;;24.80;99.90;;;;;;4228419;28;20114;-62
2022/08/16 07:01:59;;;;;;;;;;;24.90;99.90;;;;;;4229352;28;19911;-63
2022/08/16 07:04:00;;;;;;;;;;;25.00;99.90;;;;;;4228295;28;20392;-63
2022/08/16 07:06:01;;;;;;;;;;;25.00;99.90;;;;;;4228913;28;19907;-63
2022/08/16 07:08:03;;;;;;;;;;;24.90;99.90;;;;;;4228485;28;19900;-63
2022/08/16 07:10:04;;;;;;;;;;;24.50;99.90;;;;;;4228348;28;19908;-62
2022/08/16 07:12:05;;;;;;;;;;;24.20;99.90;;;;;;4228746;28;19972;-63
2022/08/16 07:14:06;;;;;;;;;;;24.00;99.90;;;;;;4228392;28;19956;-61
2022/08/16 07:16:13;;;;;;;;;;;23.80;99.90;;;;;;4229028;28;19933;-61
2022/08/16 07:18:14;;;;;;;;;;;23.70;99.90;;;;;;4227868;28;20352;-61
2022/08/16 07:20:18;;;;;;;;;;;23.60;99.90;;;;;;4228962;28;19911;-61
2022/08/16 07:22:19;;;;;;;;;;;23.70;99.90;;;;;;4227548;28;19924;-61
2022/08/16 07:24:20;;;;;;;;;;;23.80;99.90;;;;;;4229388;28;19907;-62
2022/08/16 07:26:23;;;;;;;;;;;23.90;99.90;;;;;;4227821;28;19907;-62
2022/08/16 07:28:24;;;;;;;;;;;23.90;99.90;;;;;;4228775;28;19976;-63
2022/08/16 07:30:25;;;;;;;;;;;23.70;99.90;;;;;;4227490;28;19999;-63
2022/08/16 07:32:27;;;;;;;;;;;23.70;99.90;;;;;;4228336;28;20413;-63
2022/08/16 07:34:28;;;;;;;;;;;23.70;99.90;;;;;;4227418;27;19907;-63
2022/08/16 07:36:29;;;;;;;;;;;23.70;99.90;;;;;;4227698;28;19903;-62
2022/08/16 07:38:30;;;;;;;;;;;23.60;99.90;;;;;;4227908;28;20264;-63
2022/08/16 07:40:33;;;;;;;;;;;23.50;99.90;;;;;;4228168;28;19983;-63
2022/08/16 07:42:34;;;;;;;;;;;23.40;99.90;;;;;;4227872;28;19908;-63
2022/08/16 07:44:35;;;;;;;;;;;23.30;99.90;;;;;;4227906;28;19910;-64
2022/08/16 07:46:36;;;;;;;;;;;23.20;99.90;;;;;;4228438;28;19995;-63
2022/08/16 07:48:37;;;;;;;;;;;23.20;99.90;;;;;;4227099;28;19929;-63
2022/08/16 07:50:39;;;;;;;;;;;23.20;99.90;;;;;;4228153;28;19915;-62
2022/08/16 07:52:40;;;;;;;;;;;23.40;99.90;;;;;;4227322;28;19945;-62
2022/08/16 07:54:41;;;;;;;;;;;23.80;99.90;;;;;;4229084;28;20343;-63
2022/08/16 07:56:42;;;;;;;;;;;24.30;99.90;;;;;;4226565;28;19907;-62
2022/08/16 07:58:43;;;;;;;;;;;24.80;99.90;;;;;;4228449;28;20690;-63
2022/08/16 08:00:44;;;;;;;;;;;24.90;99.90;;;;;;4225595;28;19976;-62
2022/08/16 08:02:46;;;;;;;;;;;24.80;99.90;;;;;;4228473;28;20326;-62
2022/08/16 08:04:47;;;;;;;;;;;24.90;99.90;;;;;;4227127;28;19953;-61
2022/08/16 08:06:50;;;;;;;;;;;25.00;99.90;;;;;;4227913;28;19908;-62
2022/08/16 08:08:51;;;;;;;;;;;25.10;99.90;;;;;;4227376;28;19969;-62
2022/08/16 08:10:52;;;;;;;;;;;25.30;99.90;;;;;;4227772;28;19980;-62
2022/08/16 08:12:53;;;;;;;;;;;25.30;99.90;;;;;;4227764;28;19899;-62
2022/08/16 08:14:54;;;;;;;;;;;25.10;99.90;;;;;;4227683;28;19907;-62
2022/08/16 08:16:55;;;;;;;;;;;25.20;99.90;;;;;;4227946;28;19908;-62
2022/08/16 08:18:57;;;;;;;;;;;25.50;99.90;;;;;;4227451;28;19915;-62
2022/08/16 08:20:58;;;;;;;;;;;25.70;99.90;;;;;;4228167;28;20360;-62
2022/08/16 08:22:59;;;;;;;;;;;25.80;99.90;;;;;;4226829;28;19927;-62
2022/08/16 08:25:02;;;;;;;;;;;25.70;99.90;;;;;;4228861;28;20325;-62
2022/08/16 08:27:03;;;;;;;;;;;25.70;99.90;;;;;;4227170;28;19919;-62
2022/08/16 08:29:04;;;;;;;;;;;26.00;99.90;;;;;;4228435;28;19949;-63
2022/08/16 08:31:05;;;;;;;;;;;26.40;99.90;;;;;;4227218;28;19991;-62
2022/08/16 08:33:06;;;;;;;;;;;26.70;99.90;;;;;;4228573;28;19957;-62
2022/08/16 08:35:07;;;;;;;;;;;26.80;99.90;;;;;;4227242;28;19908;-63
2022/08/16 08:37:08;;;;;;;;;;;26.80;99.90;;;;;;4228071;28;19904;-62
2022/08/16 08:39:09;;;;;;;;;;;26.80;99.90;;;;;;4227093;28;19957;-63
2022/08/16 08:41:10;;;;;;;;;;;26.70;99.90;;;;;;4227600;28;19951;-63
2022/08/16 08:43:11;;;;;;;;;;;26.50;99.90;;;;;;4227577;28;19900;-63
2022/08/16 08:45:13;;;;;;;;;;;26.00;99.90;;;;;;4226006;28;19933;-63
2022/08/16 08:47:14;;;;;;;;;;;25.50;99.90;;;;;;4227445;28;20705;-62
2022/08/16 08:49:15;;;;;;;;;;;25.20;99.90;;;;;;4226744;28;19908;-62
2022/08/16 08:51:17;;;;;;;;;;;24.90;99.90;;;;;;4227566;28;19991;-63
2022/08/16 08:53:18;;;;;;;;;;;24.60;99.90;;;;;;4226826;28;19957;-62
2022/08/16 08:55:21;;;;;;;;;;;24.40;99.90;;;;;;4228388;28;19911;-62
2022/08/16 08:57:23;;;;;;;;;;;24.20;99.90;;;;;;4226965;28;19907;-64
2022/08/16 08:59:24;;;;;;;;;;;24.10;99.90;;;;;;4227878;28;19952;-62
2022/08/16 09:01:27;;;;;;;;;;;23.90;99.90;;;;;;4226961;28;19911;-62
2022/08/16 09:03:28;;;;;;;;;;;23.80;99.90;;;;;;4227549;28;19934;-62
2022/08/16 09:05:29;;;;;;;;;;;23.80;99.90;;;;;;4226264;28;20016;-61
2022/08/16 09:07:30;;;;;;;;;;;23.80;99.90;;;;;;4228323;28;19921;-61
2022/08/16 09:09:31;;;;;;;;;;;23.90;99.90;;;;;;4229480;28;20341;-62
2022/08/16 09:11:33;;;;;;;;;;;23.80;99.90;;;;;;4230498;27;19911;-62
2022/08/16 09:13:34;;;;;;;;;;;23.90;99.90;;;;;;4229992;28;19908;-62
2022/08/16 09:15:35;;;;;;;;;;;24.20;99.90;;;;;;4230019;28;19937;-61
2022/08/16 09:17:36;;;;;;;;;;;24.60;99.90;;;;;;4230005;28;19998;-61
2022/08/16 09:19:38;;;;;;;;;;;25.00;99.90;;;;;;4229452;28;19916;-62
2022/08/16 09:21:39;;;;;;;;;;;25.40;99.90;;;;;;4229951;28;20351;-62
2022/08/16 09:23:40;;;;;;;;;;;25.70;99.90;;;;;;4229431;28;19908;-63
2022/08/16 09:25:42;;;;;;;;;;;26.10;99.90;;;;;;4230830;28;20264;-62
2022/08/16 09:27:43;;;;;;;;;;;26.30;99.90;;;;;;4229422;28;19908;-62
2022/08/16 09:29:44;;;;;;;;;;;26.40;99.90;;;;;;4230565;28;19912;-62
2022/08/16 09:31:46;;;;;;;;;;;26.50;99.90;;;;;;4229562;28;20335;-62
2022/08/16 09:33:46;;;;;;;;;;;26.50;99.90;;;;;;4230789;28;19952;-62
2022/08/16 09:35:49;;;;;;;;;;;26.70;99.90;;;;;;4229469;28;19907;-62
2022/08/16 09:37:50;;;;;;;;;;;26.60;99.90;;;;;;4229044;28;19961;-62
2022/08/16 09:39:51;;;;;;;;;;;26.60;99.90;;;;;;4229232;28;19912;-62
2022/08/16 09:41:54;;;;;;;;;;;26.50;99.90;;;;;;4230203;28;19904;-62
2022/08/16 09:43:56;;;;;;;;;;;26.60;99.90;;;;;;4229495;28;19907;-61
2022/08/16 09:45:57;;;;;;;;;;;26.40;99.90;;;;;;4230008;28;19964;-61
2022/08/16 09:47:58;;;;;;;;;;;26.40;99.90;;;;;;4229522;28;19907;-62
2022/08/16 09:49:59;;;;;;;;;;;26.50;99.90;;;;;;4229569;28;19907;-61
2022/08/16 09:52:00;;;;;;;;;;;26.60;99.90;;;;;;4229568;28;19907;-62
2022/08/16 09:54:01;;;;;;;;;;;26.40;99.90;;;;;;4229415;28;20003;-63
2022/08/16 09:56:04;;;;;;;;;;;26.00;99.90;;;;;;4230826;28;19907;-62
2022/08/16 09:58:04;;;;;;;;;;;25.50;99.90;;;;;;4229056;28;19903;-63
2022/08/16 10:00:07;;;;;;;;;;;25.20;99.90;;;;;;4230223;28;19922;-61
2022/08/16 10:02:08;;;;;;;;;;;25.00;99.90;;;;;;4228607;28;19933;-62
2022/08/16 10:04:10;;;;;;;;;;;25.00;99.90;;;;;;4230358;28;19907;-62
2022/08/16 10:06:11;;;;;;;;;;;24.90;99.90;;;;;;4228728;28;19919;-62
2022/08/16 10:08:12;;;;;;;;;;;25.00;99.90;;;;;;4229996;28;19969;-62
2022/08/16 10:10:13;;;;;;;;;;;25.00;99.90;;;;;;4228923;28;19912;-61
2022/08/16 10:14:35;;;;;;;;;;;25.00;99.90;;;;;;4229395;28;19976;-61
2022/08/16 10:16:36;;;;;;;;;;;24.70;99.90;;;;;;4230249;28;19904;-62
2022/08/16 10:18:37;;;;;;;;;;;24.30;99.90;;;;;;4228517;28;20063;-62
2022/08/16 10:20:43;;;;;;;;;;;24.10;99.90;;;;;;4228757;28;19942;-62
2022/08/16 10:22:44;;;;;;;;;;;23.80;99.90;;;;;;4228506;28;19916;-62
2022/08/16 10:24:45;;;;;;;;;;;23.60;99.90;;;;;;4229534;28;19961;-62
2022/08/16 10:26:46;;;;;;;;;;;23.30;99.90;;;;;;4229767;28;19909;-62
2022/08/16 10:28:47;;;;;;;;;;;23.20;99.90;;;;;;4228359;28;20248;-64
2022/08/16 10:30:48;;;;;;;;;;;23.00;99.90;;;;;;4228204;28;19970;-63
2022/08/16 10:32:49;;;;;;;;;;;23.00;99.90;;;;;;4228700;28;20576;-62
2022/08/16 10:34:50;;;;;;;;;;;22.90;99.90;;;;;;4229860;28;19921;-62
2022/08/16 10:36:51;;;;;;;;;;;23.00;99.90;;;;;;4228515;27;19964;-62
2022/08/16 10:38:52;;;;;;;;;;;23.00;99.90;;;;;;4229907;28;19915;-62
2022/08/16 10:40:53;;;;;;;;;;;23.00;99.90;;;;;;4228093;27;19911;-62
2022/08/16 10:42:54;;;;;;;;;;;22.90;99.90;;;;;;4229832;28;19908;-63
2022/08/16 10:44:55;;;;;;;;;;;22.80;99.90;;;;;;4228642;28;19907;-62
2022/08/16 10:46:56;;;;;;;;;;;22.90;99.90;;;;;;4229791;28;19957;-62
2022/08/16 10:48:57;;;;;;;;;;;22.90;99.90;;;;;;4228582;28;20340;-62
2022/08/16 10:50:58;;;;;;;;;;;23.10;99.90;;;;;;4229230;28;19926;-65
2022/08/16 10:53:05;;;;;;;;;;;23.30;99.90;;;;;;4228676;28;19960;-63
2022/08/16 10:55:11;;;;;;;;;;;23.40;99.90;;;;;;4229257;28;19903;-63
2022/08/16 10:57:13;;;;;;;;;;;23.40;99.90;;;;;;4228588;28;19957;-63
2022/08/16 10:59:14;;;;;;;;;;;23.50;99.90;;;;;;4228669;28;19961;-62
2022/08/16 11:01:15;;;;;;;;;;;23.60;99.90;;;;;;4228651;28;19915;-63
2022/08/16 11:03:17;;;;;;;;;;;23.70;99.90;;;;;;4228282;28;19907;-65
2022/08/16 11:05:18;;;;;;;;;;;23.70;99.90;;;;;;4229238;28;19953;-63
2022/08/16 11:07:19;;;;;;;;;;;23.70;99.90;;;;;;4228063;28;19960;-63
2022/08/16 11:09:20;;;;;;;;;;;23.70;99.90;;;;;;4229318;28;20294;-63
2022/08/16 11:11:21;;;;;;;;;;;23.70;99.90;;;;;;4228087;28;19946;-63
2022/08/16 11:13:24;;;;;;;;;;;23.70;99.90;;;;;;4229461;28;19933;-63
2022/08/16 11:15:25;;;;;;;;;;;23.70;99.90;;;;;;4228033;28;20355;-63
2022/08/16 11:17:27;;;;;;;;;;;23.70;99.90;;;;;;4229416;28;19998;-63
2022/08/16 11:19:28;;;;;;;;;;;23.70;99.90;;;;;;4228017;28;20288;-63
2022/08/16 11:21:29;;;;;;;;;;;23.70;99.90;;;;;;4228924;28;20329;-63
2022/08/16 11:23:31;;;;;;;;;;;23.80;99.90;;;;;;4227835;28;19911;-63
2022/08/16 11:25:32;;;;;;;;;;;23.80;99.90;;;;;;4228669;28;19908;-64
2022/08/16 11:27:33;;;;;;;;;;;23.90;99.90;;;;;;4228176;28;19907;-65
2022/08/16 11:29:34;;;;;;;;;;;24.10;99.90;;;;;;4228260;28;19915;-64
2022/08/16 11:31:35;;;;;;;;;;;24.20;99.90;;;;;;4228193;28;20246;-63
2022/08/16 11:33:36;;;;;;;;;;;24.40;99.90;;;;;;4227964;28;19908;-64
2022/08/16 11:35:38;;;;;;;;;;;24.60;99.90;;;;;;4228867;28;19908;-63
2022/08/16 11:37:40;;;;;;;;;;;24.80;99.90;;;;;;4227410;28;19908;-66
2022/08/16 11:39:42;;;;;;;;;;;25.00;99.90;;;;;;4228998;28;19907;-61
2022/08/16 11:41:43;;;;;;;;;;;25.10;99.90;;;;;;4227478;28;20417;-63
2022/08/16 11:43:45;;;;;;;;;;;25.30;99.90;;;;;;4228776;28;19998;-62
2022/08/16 11:45:47;;;;;;;;;;;25.40;99.90;;;;;;4227607;28;19976;-62
2022/08/16 11:47:48;;;;;;;;;;;25.50;99.90;;;;;;4228596;28;20283;-62